sensor_id;sensor_type;location;lat;lon;timestamp;P1;durP1;ratioP1;P2;durP2;ratioP2
67804;SDS011;54603;45.638;11.714;2022-10-15T00:01:25;9.20;;;7.40;;
67804;SDS011;54603;45.638;11.714;2022-10-15T00:03:51;8.70;;;7.70;;
67804;SDS011;54603;45.638;11.714;2022-10-15T00:06:17;9.10;;;7.40;;
67804;SDS011;54603;45.638;11.714;2022-10-15T00:08:44;9.10;;;7.20;;
67804;SDS011;54603;45.638;11.714;2022-10-15T00:11:12;8.00;;;7.20;;
67804;SDS011;54603;45.638;11.714;2022-10-15T00:13:40;8.80;;;7.30;;
67804;SDS011;54603;45.638;11.714;2022-10-15T00:16:13;8.40;;;7.40;;
67804;SDS011;54603;45.638;11.714;2022-10-15T00:18:41;9.10;;;7.40;;
67804;SDS011;54603;45.638;11.714;2022-10-15T00:21:07;11.30;;;7.70;;
67804;SDS011;54603;45.638;11.714;2022-10-15T00:23:34;8.70;;;7.50;;
67804;SDS011;54603;45.638;11.714;2022-10-15T00:26:01;9.10;;;7.60;;
67804;SDS011;54603;45.638;11.714;2022-10-15T00:28:31;7.90;;;7.10;;
67804;SDS011;54603;45.638;11.714;2022-10-15T00:31:04;8.60;;;7.50;;
67804;SDS011;54603;45.638;11.714;2022-10-15T00:33:34;7.80;;;6.70;;
67804;SDS011;54603;45.638;11.714;2022-10-15T00:36:01;9.30;;;7.10;;
67804;SDS011;54603;45.638;11.714;2022-10-15T00:38:29;9.10;;;7.20;;
67804;SDS011;54603;45.638;11.714;2022-10-15T00:40:55;10.00;;;7.60;;
67804;SDS011;54603;45.638;11.714;2022-10-15T00:46:18;8.60;;;7.10;;
67804;SDS011;54603;45.638;11.714;2022-10-15T00:49:04;8.10;;;7.10;;
67804;SDS011;54603;45.638;11.714;2022-10-15T00:51:39;7.80;;;7.00;;
67804;SDS011;54603;45.638;11.714;2022-10-15T00:54:08;9.20;;;8.10;;
67804;SDS011;54603;45.638;11.714;2022-10-15T00:56:35;10.30;;;7.80;;
67804;SDS011;54603;45.638;11.714;2022-10-15T00:59:02;8.80;;;7.50;;
67804;SDS011;54603;45.638;11.714;2022-10-15T01:01:29;9.00;;;7.70;;
67804;SDS011;54603;45.638;11.714;2022-10-15T01:03:54;8.20;;;6.80;;
67804;SDS011;54603;45.638;11.714;2022-10-15T01:06:20;8.50;;;7.20;;
67804;SDS011;54603;45.638;11.714;2022-10-15T01:08:46;8.30;;;7.30;;
67804;SDS011;54603;45.638;11.714;2022-10-15T01:16:40;8.40;;;7.50;;
67804;SDS011;54603;45.638;11.714;2022-10-15T01:22:03;6.70;;;5.90;;
67804;SDS011;54603;45.638;11.714;2022-10-15T01:27:40;8.90;;;7.10;;
67804;SDS011;54603;45.638;11.714;2022-10-15T01:30:21;8.70;;;7.00;;
67804;SDS011;54603;45.638;11.714;2022-10-15T01:32:57;8.00;;;7.00;;
67804;SDS011;54603;45.638;11.714;2022-10-15T01:39:04;8.10;;;7.20;;
67804;SDS011;54603;45.638;11.714;2022-10-15T01:41:41;7.90;;;7.10;;
67804;SDS011;54603;45.638;11.714;2022-10-15T01:44:13;11.00;;;7.40;;
67804;SDS011;54603;45.638;11.714;2022-10-15T01:46:46;8.70;;;7.50;;
67804;SDS011;54603;45.638;11.714;2022-10-15T01:49:17;9.70;;;7.80;;
67804;SDS011;54603;45.638;11.714;2022-10-15T01:51:50;11.90;;;7.30;;
67804;SDS011;54603;45.638;11.714;2022-10-15T01:54:17;8.10;;;7.30;;
67804;SDS011;54603;45.638;11.714;2022-10-15T01:56:45;8.30;;;7.40;;
67804;SDS011;54603;45.638;11.714;2022-10-15T01:59:14;8.70;;;7.40;;
67804;SDS011;54603;45.638;11.714;2022-10-15T02:01:42;9.30;;;7.70;;
67804;SDS011;54603;45.638;11.714;2022-10-15T02:04:20;7.60;;;6.90;;
67804;SDS011;54603;45.638;11.714;2022-10-15T02:06:49;10.20;;;7.40;;
67804;SDS011;54603;45.638;11.714;2022-10-15T02:09:57;9.50;;;8.10;;
67804;SDS011;54603;45.638;11.714;2022-10-15T02:13:01;9.10;;;7.80;;
67804;SDS011;54603;45.638;11.714;2022-10-15T02:15:42;8.00;;;7.10;;
67804;SDS011;54603;45.638;11.714;2022-10-15T02:21:13;8.60;;;7.20;;
67804;SDS011;54603;45.638;11.714;2022-10-15T02:23:52;10.90;;;8.00;;
67804;SDS011;54603;45.638;11.714;2022-10-15T02:26:21;8.40;;;7.00;;
67804;SDS011;54603;45.638;11.714;2022-10-15T02:28:51;8.20;;;7.40;;
67804;SDS011;54603;45.638;11.714;2022-10-15T02:31:19;9.60;;;7.60;;
67804;SDS011;54603;45.638;11.714;2022-10-15T02:33:46;8.30;;;7.20;;
67804;SDS011;54603;45.638;11.714;2022-10-15T02:36:12;8.40;;;7.60;;
67804;SDS011;54603;45.638;11.714;2022-10-15T02:38:39;9.00;;;7.90;;
67804;SDS011;54603;45.638;11.714;2022-10-15T02:41:08;10.40;;;7.80;;
67804;SDS011;54603;45.638;11.714;2022-10-15T02:43:34;8.90;;;8.00;;
67804;SDS011;54603;45.638;11.714;2022-10-15T02:46:01;8.10;;;7.20;;
67804;SDS011;54603;45.638;11.714;2022-10-15T02:48:26;9.70;;;7.80;;
67804;SDS011;54603;45.638;11.714;2022-10-15T02:50:52;8.60;;;7.50;;
67804;SDS011;54603;45.638;11.714;2022-10-15T02:53:17;8.20;;;6.80;;
67804;SDS011;54603;45.638;11.714;2022-10-15T02:55:43;7.50;;;6.70;;
67804;SDS011;54603;45.638;11.714;2022-10-15T02:58:10;7.50;;;6.70;;
67804;SDS011;54603;45.638;11.714;2022-10-15T03:00:36;8.30;;;7.40;;
67804;SDS011;54603;45.638;11.714;2022-10-15T03:03:02;9.00;;;7.10;;
67804;SDS011;54603;45.638;11.714;2022-10-15T03:05:27;9.20;;;8.10;;
67804;SDS011;54603;45.638;11.714;2022-10-15T03:07:53;8.20;;;7.40;;
67804;SDS011;54603;45.638;11.714;2022-10-15T03:10:18;8.20;;;7.10;;
67804;SDS011;54603;45.638;11.714;2022-10-15T03:12:44;8.90;;;7.90;;
67804;SDS011;54603;45.638;11.714;2022-10-15T03:15:10;8.70;;;7.30;;
67804;SDS011;54603;45.638;11.714;2022-10-15T03:17:35;9.50;;;7.90;;
67804;SDS011;54603;45.638;11.714;2022-10-15T03:20:01;8.40;;;7.50;;
67804;SDS011;54603;45.638;11.714;2022-10-15T03:22:26;9.60;;;8.00;;
67804;SDS011;54603;45.638;11.714;2022-10-15T03:24:52;8.10;;;7.20;;
67804;SDS011;54603;45.638;11.714;2022-10-15T03:27:17;8.80;;;7.30;;
67804;SDS011;54603;45.638;11.714;2022-10-15T03:29:43;10.00;;;7.30;;
67804;SDS011;54603;45.638;11.714;2022-10-15T03:32:08;7.80;;;7.00;;
67804;SDS011;54603;45.638;11.714;2022-10-15T03:34:34;10.80;;;7.80;;
67804;SDS011;54603;45.638;11.714;2022-10-15T03:36:59;8.70;;;7.40;;
67804;SDS011;54603;45.638;11.714;2022-10-15T03:39:25;8.70;;;7.30;;
67804;SDS011;54603;45.638;11.714;2022-10-15T03:41:53;7.90;;;6.80;;
67804;SDS011;54603;45.638;11.714;2022-10-15T03:44:19;8.00;;;7.10;;
67804;SDS011;54603;45.638;11.714;2022-10-15T03:46:45;8.70;;;7.00;;
67804;SDS011;54603;45.638;11.714;2022-10-15T03:49:10;7.90;;;7.10;;
67804;SDS011;54603;45.638;11.714;2022-10-15T03:51:36;8.50;;;7.50;;
67804;SDS011;54603;45.638;11.714;2022-10-15T03:54:02;7.90;;;7.10;;
67804;SDS011;54603;45.638;11.714;2022-10-15T03:56:28;8.60;;;7.60;;
67804;SDS011;54603;45.638;11.714;2022-10-15T03:58:53;7.90;;;7.10;;
67804;SDS011;54603;45.638;11.714;2022-10-15T04:01:19;7.90;;;7.10;;
67804;SDS011;54603;45.638;11.714;2022-10-15T04:03:44;8.40;;;6.40;;
67804;SDS011;54603;45.638;11.714;2022-10-15T04:06:10;8.00;;;7.10;;
67804;SDS011;54603;45.638;11.714;2022-10-15T04:08:36;8.30;;;7.30;;
67804;SDS011;54603;45.638;11.714;2022-10-15T04:11:01;8.40;;;7.40;;
67804;SDS011;54603;45.638;11.714;2022-10-15T04:13:27;7.70;;;6.90;;
67804;SDS011;54603;45.638;11.714;2022-10-15T04:15:53;8.10;;;6.70;;
67804;SDS011;54603;45.638;11.714;2022-10-15T04:18:19;6.70;;;6.00;;
67804;SDS011;54603;45.638;11.714;2022-10-15T04:20:46;8.00;;;6.60;;
67804;SDS011;54603;45.638;11.714;2022-10-15T04:23:12;7.70;;;6.90;;
67804;SDS011;54603;45.638;11.714;2022-10-15T04:25:39;7.50;;;6.80;;
67804;SDS011;54603;45.638;11.714;2022-10-15T04:28:04;8.60;;;7.50;;
67804;SDS011;54603;45.638;11.714;2022-10-15T04:30:30;7.70;;;6.90;;
67804;SDS011;54603;45.638;11.714;2022-10-15T04:32:56;8.80;;;7.20;;
67804;SDS011;54603;45.638;11.714;2022-10-15T04:35:21;8.00;;;7.20;;
67804;SDS011;54603;45.638;11.714;2022-10-15T04:37:47;8.20;;;7.10;;
67804;SDS011;54603;45.638;11.714;2022-10-15T04:40:12;7.90;;;7.10;;
67804;SDS011;54603;45.638;11.714;2022-10-15T04:42:38;7.70;;;6.90;;
67804;SDS011;54603;45.638;11.714;2022-10-15T04:45:04;9.80;;;7.50;;
67804;SDS011;54603;45.638;11.714;2022-10-15T04:47:30;7.20;;;6.50;;
67804;SDS011;54603;45.638;11.714;2022-10-15T04:49:56;7.50;;;6.80;;
67804;SDS011;54603;45.638;11.714;2022-10-15T04:52:22;8.10;;;7.10;;
67804;SDS011;54603;45.638;11.714;2022-10-15T04:54:47;7.30;;;6.60;;
67804;SDS011;54603;45.638;11.714;2022-10-15T04:57:13;7.60;;;6.80;;
67804;SDS011;54603;45.638;11.714;2022-10-15T04:59:38;7.80;;;7.00;;
67804;SDS011;54603;45.638;11.714;2022-10-15T05:02:04;8.00;;;7.00;;
67804;SDS011;54603;45.638;11.714;2022-10-15T05:04:29;7.60;;;6.80;;
67804;SDS011;54603;45.638;11.714;2022-10-15T05:06:55;7.70;;;6.80;;
67804;SDS011;54603;45.638;11.714;2022-10-15T05:09:20;7.80;;;7.00;;
67804;SDS011;54603;45.638;11.714;2022-10-15T05:11:46;7.80;;;7.00;;
67804;SDS011;54603;45.638;11.714;2022-10-15T05:14:11;8.10;;;6.60;;
67804;SDS011;54603;45.638;11.714;2022-10-15T05:16:37;7.90;;;7.10;;
67804;SDS011;54603;45.638;11.714;2022-10-15T05:19:04;7.50;;;6.70;;
67804;SDS011;54603;45.638;11.714;2022-10-15T05:21:31;8.10;;;7.10;;
67804;SDS011;54603;45.638;11.714;2022-10-15T05:23:58;7.50;;;6.70;;
67804;SDS011;54603;45.638;11.714;2022-10-15T05:26:24;7.00;;;6.30;;
67804;SDS011;54603;45.638;11.714;2022-10-15T05:28:50;7.00;;;6.20;;
67804;SDS011;54603;45.638;11.714;2022-10-15T05:31:20;9.30;;;6.50;;
67804;SDS011;54603;45.638;11.714;2022-10-15T05:33:47;8.40;;;7.00;;
67804;SDS011;54603;45.638;11.714;2022-10-15T05:36:14;6.90;;;6.20;;
67804;SDS011;54603;45.638;11.714;2022-10-15T05:38:44;7.60;;;6.80;;
67804;SDS011;54603;45.638;11.714;2022-10-15T05:41:10;7.40;;;6.40;;
67804;SDS011;54603;45.638;11.714;2022-10-15T05:43:36;8.50;;;6.70;;
67804;SDS011;54603;45.638;11.714;2022-10-15T05:46:01;8.70;;;6.40;;
67804;SDS011;54603;45.638;11.714;2022-10-15T05:48:27;6.80;;;6.10;;
67804;SDS011;54603;45.638;11.714;2022-10-15T05:50:53;8.60;;;6.20;;
67804;SDS011;54603;45.638;11.714;2022-10-15T05:53:24;7.50;;;6.40;;
67804;SDS011;54603;45.638;11.714;2022-10-15T05:55:51;8.20;;;6.20;;
67804;SDS011;54603;45.638;11.714;2022-10-15T05:58:17;7.50;;;6.50;;
67804;SDS011;54603;45.638;11.714;2022-10-15T06:00:43;7.50;;;5.90;;
67804;SDS011;54603;45.638;11.714;2022-10-15T06:03:12;9.40;;;6.40;;
67804;SDS011;54603;45.638;11.714;2022-10-15T06:05:38;7.60;;;6.20;;
67804;SDS011;54603;45.638;11.714;2022-10-15T06:08:04;6.40;;;5.60;;
67804;SDS011;54603;45.638;11.714;2022-10-15T06:10:30;6.30;;;5.70;;
67804;SDS011;54603;45.638;11.714;2022-10-15T06:12:59;6.80;;;6.10;;
67804;SDS011;54603;45.638;11.714;2022-10-15T06:15:25;7.40;;;6.10;;
67804;SDS011;54603;45.638;11.714;2022-10-15T06:17:51;8.90;;;6.30;;
67804;SDS011;54603;45.638;11.714;2022-10-15T06:20:18;7.10;;;6.00;;
67804;SDS011;54603;45.638;11.714;2022-10-15T06:22:44;7.90;;;6.20;;
67804;SDS011;54603;45.638;11.714;2022-10-15T06:25:09;7.20;;;6.20;;
67804;SDS011;54603;45.638;11.714;2022-10-15T06:27:35;7.10;;;6.40;;
67804;SDS011;54603;45.638;11.714;2022-10-15T06:30:00;9.10;;;6.70;;
67804;SDS011;54603;45.638;11.714;2022-10-15T06:32:26;8.60;;;6.00;;
67804;SDS011;54603;45.638;11.714;2022-10-15T06:34:52;8.00;;;6.20;;
67804;SDS011;54603;45.638;11.714;2022-10-15T06:37:17;8.50;;;6.90;;
67804;SDS011;54603;45.638;11.714;2022-10-15T06:39:43;6.70;;;5.90;;
67804;SDS011;54603;45.638;11.714;2022-10-15T06:42:10;8.10;;;6.30;;
67804;SDS011;54603;45.638;11.714;2022-10-15T06:44:37;7.90;;;6.20;;
67804;SDS011;54603;45.638;11.714;2022-10-15T06:47:03;9.70;;;7.40;;
67804;SDS011;54603;45.638;11.714;2022-10-15T06:49:29;8.20;;;7.30;;
67804;SDS011;54603;45.638;11.714;2022-10-15T06:51:54;9.50;;;7.80;;
67804;SDS011;54603;45.638;11.714;2022-10-15T06:54:20;8.30;;;7.20;;
67804;SDS011;54603;45.638;11.714;2022-10-15T06:56:45;8.70;;;7.70;;
67804;SDS011;54603;45.638;11.714;2022-10-15T06:59:11;9.50;;;7.80;;
67804;SDS011;54603;45.638;11.714;2022-10-15T07:01:36;12.20;;;8.10;;
67804;SDS011;54603;45.638;11.714;2022-10-15T07:04:02;9.20;;;7.60;;
67804;SDS011;54603;45.638;11.714;2022-10-15T07:06:28;11.40;;;8.30;;
67804;SDS011;54603;45.638;11.714;2022-10-15T07:08:53;11.40;;;8.70;;
67804;SDS011;54603;45.638;11.714;2022-10-15T07:11:19;14.40;;;8.50;;
67804;SDS011;54603;45.638;11.714;2022-10-15T07:13:44;10.50;;;8.40;;
67804;SDS011;54603;45.638;11.714;2022-10-15T07:16:11;11.60;;;8.70;;
67804;SDS011;54603;45.638;11.714;2022-10-15T07:18:37;11.70;;;9.20;;
67804;SDS011;54603;45.638;11.714;2022-10-15T07:21:04;10.50;;;8.70;;
67804;SDS011;54603;45.638;11.714;2022-10-15T07:23:31;11.70;;;9.70;;
67804;SDS011;54603;45.638;11.714;2022-10-15T07:25:56;13.30;;;9.10;;
67804;SDS011;54603;45.638;11.714;2022-10-15T07:28:23;12.60;;;9.30;;
67804;SDS011;54603;45.638;11.714;2022-10-15T07:30:48;14.20;;;9.10;;
67804;SDS011;54603;45.638;11.714;2022-10-15T07:33:14;15.10;;;9.20;;
67804;SDS011;54603;45.638;11.714;2022-10-15T07:35:40;13.20;;;9.60;;
67804;SDS011;54603;45.638;11.714;2022-10-15T07:38:05;11.50;;;9.10;;
67804;SDS011;54603;45.638;11.714;2022-10-15T07:40:31;13.10;;;9.60;;
67804;SDS011;54603;45.638;11.714;2022-10-15T07:42:56;12.20;;;9.60;;
67804;SDS011;54603;45.638;11.714;2022-10-15T07:45:23;13.70;;;10.30;;
67804;SDS011;54603;45.638;11.714;2022-10-15T07:47:49;13.20;;;9.50;;
67804;SDS011;54603;45.638;11.714;2022-10-15T07:50:16;11.80;;;9.20;;
67804;SDS011;54603;45.638;11.714;2022-10-15T07:52:41;14.50;;;10.00;;
67804;SDS011;54603;45.638;11.714;2022-10-15T07:55:07;12.60;;;9.70;;
67804;SDS011;54603;45.638;11.714;2022-10-15T07:57:33;13.50;;;9.70;;
67804;SDS011;54603;45.638;11.714;2022-10-15T07:59:58;12.40;;;9.70;;
67804;SDS011;54603;45.638;11.714;2022-10-15T08:02:24;12.10;;;9.50;;
67804;SDS011;54603;45.638;11.714;2022-10-15T08:04:50;10.50;;;9.10;;
67804;SDS011;54603;45.638;11.714;2022-10-15T08:07:16;14.20;;;10.20;;
67804;SDS011;54603;45.638;11.714;2022-10-15T08:09:41;12.30;;;9.40;;
67804;SDS011;54603;45.638;11.714;2022-10-15T08:12:07;11.80;;;9.90;;
67804;SDS011;54603;45.638;11.714;2022-10-15T08:14:33;11.80;;;9.60;;
67804;SDS011;54603;45.638;11.714;2022-10-15T08:17:00;10.50;;;9.00;;
67804;SDS011;54603;45.638;11.714;2022-10-15T08:19:26;12.10;;;9.10;;
67804;SDS011;54603;45.638;11.714;2022-10-15T08:21:51;11.30;;;9.50;;
67804;SDS011;54603;45.638;11.714;2022-10-15T08:24:17;11.70;;;9.60;;
67804;SDS011;54603;45.638;11.714;2022-10-15T08:26:42;14.20;;;9.10;;
67804;SDS011;54603;45.638;11.714;2022-10-15T08:29:08;14.20;;;9.30;;
67804;SDS011;54603;45.638;11.714;2022-10-15T08:31:34;10.40;;;9.10;;
67804;SDS011;54603;45.638;11.714;2022-10-15T08:34:03;11.60;;;9.40;;
67804;SDS011;54603;45.638;11.714;2022-10-15T08:36:29;9.80;;;8.70;;
67804;SDS011;54603;45.638;11.714;2022-10-15T08:38:54;12.30;;;9.70;;
67804;SDS011;54603;45.638;11.714;2022-10-15T08:41:25;12.40;;;8.80;;
67804;SDS011;54603;45.638;11.714;2022-10-15T08:43:51;12.40;;;9.30;;
67804;SDS011;54603;45.638;11.714;2022-10-15T08:46:38;10.30;;;9.20;;
67804;SDS011;54603;45.638;11.714;2022-10-15T08:49:04;12.40;;;9.90;;
67804;SDS011;54603;45.638;11.714;2022-10-15T08:51:36;13.10;;;9.30;;
67804;SDS011;54603;45.638;11.714;2022-10-15T08:54:05;11.50;;;8.70;;
67804;SDS011;54603;45.638;11.714;2022-10-15T08:56:36;11.10;;;9.20;;
67804;SDS011;54603;45.638;11.714;2022-10-15T08:59:06;13.70;;;10.60;;
67804;SDS011;54603;45.638;11.714;2022-10-15T09:07:06;14.60;;;9.70;;
67804;SDS011;54603;45.638;11.714;2022-10-15T09:09:48;13.40;;;9.90;;
67804;SDS011;54603;45.638;11.714;2022-10-15T09:15:14;11.90;;;10.00;;
67804;SDS011;54603;45.638;11.714;2022-10-15T09:17:42;13.60;;;10.30;;
67804;SDS011;54603;45.638;11.714;2022-10-15T09:20:13;12.50;;;10.30;;
67804;SDS011;54603;45.638;11.714;2022-10-15T09:22:42;12.30;;;10.20;;
67804;SDS011;54603;45.638;11.714;2022-10-15T09:25:14;13.40;;;10.60;;
67804;SDS011;54603;45.638;11.714;2022-10-15T09:27:41;12.20;;;10.10;;
67804;SDS011;54603;45.638;11.714;2022-10-15T09:44:15;15.80;;;11.60;;
67804;SDS011;54603;45.638;11.714;2022-10-15T09:46:46;15.00;;;11.70;;
67804;SDS011;54603;45.638;11.714;2022-10-15T09:49:14;14.90;;;11.70;;
67804;SDS011;54603;45.638;11.714;2022-10-15T09:52:07;16.80;;;12.30;;
67804;SDS011;54603;45.638;11.714;2022-10-15T09:57:33;15.20;;;11.80;;
67804;SDS011;54603;45.638;11.714;2022-10-15T10:00:03;15.90;;;11.80;;
67804;SDS011;54603;45.638;11.714;2022-10-15T10:02:32;14.50;;;11.70;;
67804;SDS011;54603;45.638;11.714;2022-10-15T10:08:15;14.50;;;11.90;;
67804;SDS011;54603;45.638;11.714;2022-10-15T10:10:43;16.70;;;11.50;;
67804;SDS011;54603;45.638;11.714;2022-10-15T10:13:21;15.00;;;11.10;;
67804;SDS011;54603;45.638;11.714;2022-10-15T10:16:01;14.60;;;12.30;;
67804;SDS011;54603;45.638;11.714;2022-10-15T10:18:29;15.60;;;11.50;;
67804;SDS011;54603;45.638;11.714;2022-10-15T10:20:57;16.00;;;12.70;;
67804;SDS011;54603;45.638;11.714;2022-10-15T10:23:24;14.20;;;11.90;;
67804;SDS011;54603;45.638;11.714;2022-10-15T10:25:56;14.40;;;11.20;;
67804;SDS011;54603;45.638;11.714;2022-10-15T10:28:31;15.60;;;12.70;;
67804;SDS011;54603;45.638;11.714;2022-10-15T10:31:01;18.80;;;13.40;;
67804;SDS011;54603;45.638;11.714;2022-10-15T10:36:04;19.10;;;13.30;;
67804;SDS011;54603;45.638;11.714;2022-10-15T10:38:32;17.80;;;13.40;;
67804;SDS011;54603;45.638;11.714;2022-10-15T10:41:05;18.80;;;14.10;;
67804;SDS011;54603;45.638;11.714;2022-10-15T10:43:35;16.90;;;13.60;;
67804;SDS011;54603;45.638;11.714;2022-10-15T10:48:42;22.80;;;14.50;;
67804;SDS011;54603;45.638;11.714;2022-10-15T10:51:14;20.40;;;13.70;;
67804;SDS011;54603;45.638;11.714;2022-10-15T10:53:50;21.60;;;14.50;;
67804;SDS011;54603;45.638;11.714;2022-10-15T10:56:18;20.50;;;14.60;;
67804;SDS011;54603;45.638;11.714;2022-10-15T10:58:47;22.80;;;15.20;;
67804;SDS011;54603;45.638;11.714;2022-10-15T11:01:17;27.10;;;15.50;;
67804;SDS011;54603;45.638;11.714;2022-10-15T11:03:44;20.30;;;14.40;;
67804;SDS011;54603;45.638;11.714;2022-10-15T11:09:01;23.80;;;15.50;;
67804;SDS011;54603;45.638;11.714;2022-10-15T11:11:54;26.40;;;15.40;;
67804;SDS011;54603;45.638;11.714;2022-10-15T11:19:43;24.00;;;15.60;;
67804;SDS011;54603;45.638;11.714;2022-10-15T11:28:18;25.70;;;14.90;;
67804;SDS011;54603;45.638;11.714;2022-10-15T11:37:12;22.10;;;13.80;;
67804;SDS011;54603;45.638;11.714;2022-10-15T11:47:59;26.80;;;17.60;;
67804;SDS011;54603;45.638;11.714;2022-10-15T11:50:34;25.60;;;17.90;;
67804;SDS011;54603;45.638;11.714;2022-10-15T11:55:49;23.70;;;18.10;;
67804;SDS011;54603;45.638;11.714;2022-10-15T11:58:38;26.10;;;17.80;;
67804;SDS011;54603;45.638;11.714;2022-10-15T12:01:06;28.20;;;18.50;;
67804;SDS011;54603;45.638;11.714;2022-10-15T12:04:02;26.40;;;19.60;;
67804;SDS011;54603;45.638;11.714;2022-10-15T12:06:34;25.70;;;18.20;;
67804;SDS011;54603;45.638;11.714;2022-10-15T12:09:02;24.00;;;19.10;;
67804;SDS011;54603;45.638;11.714;2022-10-15T12:11:46;28.40;;;19.20;;
67804;SDS011;54603;45.638;11.714;2022-10-15T12:14:23;23.90;;;18.10;;
67804;SDS011;54603;45.638;11.714;2022-10-15T12:16:55;25.20;;;18.60;;
67804;SDS011;54603;45.638;11.714;2022-10-15T12:19:27;25.30;;;18.90;;
67804;SDS011;54603;45.638;11.714;2022-10-15T12:22:04;23.70;;;18.20;;
67804;SDS011;54603;45.638;11.714;2022-10-15T12:30:25;29.00;;;18.40;;
67804;SDS011;54603;45.638;11.714;2022-10-15T12:35:36;31.20;;;19.40;;
67804;SDS011;54603;45.638;11.714;2022-10-15T12:40:42;35.10;;;22.40;;
67804;SDS011;54603;45.638;11.714;2022-10-15T12:43:13;35.80;;;23.40;;
67804;SDS011;54603;45.638;11.714;2022-10-15T12:45:47;34.30;;;24.40;;
67804;SDS011;54603;45.638;11.714;2022-10-15T12:48:31;38.10;;;23.10;;
67804;SDS011;54603;45.638;11.714;2022-10-15T12:53:48;43.30;;;25.70;;
67804;SDS011;54603;45.638;11.714;2022-10-15T12:58:54;41.30;;;26.80;;
67804;SDS011;54603;45.638;11.714;2022-10-15T13:08:48;39.70;;;26.00;;
67804;SDS011;54603;45.638;11.714;2022-10-15T13:11:23;36.80;;;26.20;;
67804;SDS011;54603;45.638;11.714;2022-10-15T13:13:56;38.70;;;24.00;;
67804;SDS011;54603;45.638;11.714;2022-10-15T13:16:24;37.50;;;25.70;;
67804;SDS011;54603;45.638;11.714;2022-10-15T13:18:53;40.20;;;26.10;;
67804;SDS011;54603;45.638;11.714;2022-10-15T13:21:21;39.90;;;27.70;;
67804;SDS011;54603;45.638;11.714;2022-10-15T13:23:48;41.40;;;26.20;;
67804;SDS011;54603;45.638;11.714;2022-10-15T13:28:43;38.50;;;24.90;;
67804;SDS011;54603;45.638;11.714;2022-10-15T13:31:23;36.00;;;25.10;;
67804;SDS011;54603;45.638;11.714;2022-10-15T13:33:54;33.00;;;24.30;;
67804;SDS011;54603;45.638;11.714;2022-10-15T13:36:25;34.20;;;22.00;;
67804;SDS011;54603;45.638;11.714;2022-10-15T13:39:04;34.70;;;21.50;;
67804;SDS011;54603;45.638;11.714;2022-10-15T13:41:37;26.30;;;20.20;;
67804;SDS011;54603;45.638;11.714;2022-10-15T13:44:05;36.30;;;22.70;;
67804;SDS011;54603;45.638;11.714;2022-10-15T13:46:32;30.30;;;20.50;;
67804;SDS011;54603;45.638;11.714;2022-10-15T13:49:02;32.40;;;22.60;;
67804;SDS011;54603;45.638;11.714;2022-10-15T13:51:37;30.70;;;19.90;;
67804;SDS011;54603;45.638;11.714;2022-10-15T13:54:07;30.00;;;20.50;;
67804;SDS011;54603;45.638;11.714;2022-10-15T13:56:35;29.20;;;21.10;;
67804;SDS011;54603;45.638;11.714;2022-10-15T13:59:01;27.90;;;19.80;;
67804;SDS011;54603;45.638;11.714;2022-10-15T14:01:28;35.10;;;20.80;;
67804;SDS011;54603;45.638;11.714;2022-10-15T14:03:59;28.50;;;20.40;;
67804;SDS011;54603;45.638;11.714;2022-10-15T14:06:32;32.00;;;19.90;;
67804;SDS011;54603;45.638;11.714;2022-10-15T14:09:10;30.30;;;20.90;;
67804;SDS011;54603;45.638;11.714;2022-10-15T14:11:43;30.90;;;20.40;;
67804;SDS011;54603;45.638;11.714;2022-10-15T14:14:30;30.40;;;20.20;;
67804;SDS011;54603;45.638;11.714;2022-10-15T14:16:58;28.60;;;20.30;;
67804;SDS011;54603;45.638;11.714;2022-10-15T14:19:25;28.70;;;19.60;;
67804;SDS011;54603;45.638;11.714;2022-10-15T14:21:57;31.50;;;19.30;;
67804;SDS011;54603;45.638;11.714;2022-10-15T14:24:27;27.40;;;19.60;;
67804;SDS011;54603;45.638;11.714;2022-10-15T14:27:01;25.40;;;19.50;;
67804;SDS011;54603;45.638;11.714;2022-10-15T14:29:41;30.30;;;20.40;;
67804;SDS011;54603;45.638;11.714;2022-10-15T14:34:47;27.60;;;19.80;;
67804;SDS011;54603;45.638;11.714;2022-10-15T14:40:01;25.50;;;19.40;;
67804;SDS011;54603;45.638;11.714;2022-10-15T14:42:34;24.50;;;17.80;;
67804;SDS011;54603;45.638;11.714;2022-10-15T14:45:10;23.60;;;18.00;;
67804;SDS011;54603;45.638;11.714;2022-10-15T14:47:35;26.10;;;18.60;;
67804;SDS011;54603;45.638;11.714;2022-10-15T14:50:01;28.90;;;20.30;;
67804;SDS011;54603;45.638;11.714;2022-10-15T14:52:28;27.90;;;19.00;;
67804;SDS011;54603;45.638;11.714;2022-10-15T14:57:25;26.60;;;18.80;;
67804;SDS011;54603;45.638;11.714;2022-10-15T14:59:53;24.80;;;19.10;;
67804;SDS011;54603;45.638;11.714;2022-10-15T15:02:21;27.40;;;20.30;;
67804;SDS011;54603;45.638;11.714;2022-10-15T15:05:14;29.80;;;20.50;;
67804;SDS011;54603;45.638;11.714;2022-10-15T15:07:38;31.80;;;20.70;;
67804;SDS011;54603;45.638;11.714;2022-10-15T15:10:05;28.30;;;21.90;;
67804;SDS011;54603;45.638;11.714;2022-10-15T15:12:33;31.80;;;20.90;;
67804;SDS011;54603;45.638;11.714;2022-10-15T15:14:59;30.30;;;20.30;;
67804;SDS011;54603;45.638;11.714;2022-10-15T15:17:27;27.50;;;20.40;;
67804;SDS011;54603;45.638;11.714;2022-10-15T15:19:54;26.70;;;19.00;;
67804;SDS011;54603;45.638;11.714;2022-10-15T15:24:57;25.70;;;18.80;;
67804;SDS011;54603;45.638;11.714;2022-10-15T15:27:25;27.40;;;19.40;;
67804;SDS011;54603;45.638;11.714;2022-10-15T15:29:53;25.00;;;20.30;;
67804;SDS011;54603;45.638;11.714;2022-10-15T15:32:19;27.20;;;20.10;;
67804;SDS011;54603;45.638;11.714;2022-10-15T15:34:45;24.60;;;19.20;;
67804;SDS011;54603;45.638;11.714;2022-10-15T15:37:12;27.00;;;19.60;;
67804;SDS011;54603;45.638;11.714;2022-10-15T15:39:39;26.60;;;19.00;;
67804;SDS011;54603;45.638;11.714;2022-10-15T15:42:05;25.80;;;19.90;;
67804;SDS011;54603;45.638;11.714;2022-10-15T15:44:30;29.60;;;19.50;;
67804;SDS011;54603;45.638;11.714;2022-10-15T15:46:56;26.50;;;20.30;;
67804;SDS011;54603;45.638;11.714;2022-10-15T15:49:21;25.10;;;19.10;;
67804;SDS011;54603;45.638;11.714;2022-10-15T15:51:47;24.40;;;19.50;;
67804;SDS011;54603;45.638;11.714;2022-10-15T15:54:13;27.70;;;19.10;;
67804;SDS011;54603;45.638;11.714;2022-10-15T15:56:38;30.30;;;20.50;;
67804;SDS011;54603;45.638;11.714;2022-10-15T15:59:05;27.30;;;19.80;;
67804;SDS011;54603;45.638;11.714;2022-10-15T16:01:30;26.80;;;19.80;;
67804;SDS011;54603;45.638;11.714;2022-10-15T16:03:56;26.40;;;20.40;;
67804;SDS011;54603;45.638;11.714;2022-10-15T16:06:22;26.10;;;20.50;;
67804;SDS011;54603;45.638;11.714;2022-10-15T16:08:49;25.50;;;19.80;;
67804;SDS011;54603;45.638;11.714;2022-10-15T16:11:16;27.10;;;20.30;;
67804;SDS011;54603;45.638;11.714;2022-10-15T16:13:41;27.90;;;20.70;;
67804;SDS011;54603;45.638;11.714;2022-10-15T16:16:07;24.20;;;19.30;;
67804;SDS011;54603;45.638;11.714;2022-10-15T16:18:33;26.80;;;20.30;;
67804;SDS011;54603;45.638;11.714;2022-10-15T16:20:59;25.00;;;19.30;;
67804;SDS011;54603;45.638;11.714;2022-10-15T16:23:24;28.90;;;20.70;;
67804;SDS011;54603;45.638;11.714;2022-10-15T16:25:50;29.30;;;22.10;;
67804;SDS011;54603;45.638;11.714;2022-10-15T16:28:15;29.10;;;21.70;;
67804;SDS011;54603;45.638;11.714;2022-10-15T16:30:41;31.40;;;21.70;;
67804;SDS011;54603;45.638;11.714;2022-10-15T16:33:06;30.20;;;21.50;;